sensor_id;sensor_type;location;lat;lon;timestamp;temperature;humidity
23156;DHT22;11746;50.876;4.246;2023-04-03T00:02:20;5.30;99.90
23156;DHT22;11746;50.876;4.246;2023-04-03T00:04:45;5.20;99.90
23156;DHT22;11746;50.876;4.246;2023-04-03T00:07:11;5.20;99.90
23156;DHT22;11746;50.876;4.246;2023-04-03T00:09:37;5.30;99.90
23156;DHT22;11746;50.876;4.246;2023-04-03T00:12:03;5.20;99.90
23156;DHT22;11746;50.876;4.246;2023-04-03T00:14:31;5.20;99.90
23156;DHT22;11746;50.876;4.246;2023-04-03T00:16:57;5.20;99.90
23156;DHT22;11746;50.876;4.246;2023-04-03T00:19:22;5.20;99.90
23156;DHT22;11746;50.876;4.246;2023-04-03T00:21:50;5.10;99.90
23156;DHT22;11746;50.876;4.246;2023-04-03T00:24:18;5.10;99.90
23156;DHT22;11746;50.876;4.246;2023-04-03T00:26:44;5.00;99.90
23156;DHT22;11746;50.876;4.246;2023-04-03T00:29:10;4.90;99.90
23156;DHT22;11746;50.876;4.246;2023-04-03T00:31:35;5.00;99.90
23156;DHT22;11746;50.876;4.246;2023-04-03T00:34:01;4.90;99.90
23156;DHT22;11746;50.876;4.246;2023-04-03T00:36:29;5.00;99.90
23156;DHT22;11746;50.876;4.246;2023-04-03T00:38:55;4.90;99.90
23156;DHT22;11746;50.876;4.246;2023-04-03T00:41:21;5.00;99.90
23156;DHT22;11746;50.876;4.246;2023-04-03T00:43:47;5.00;99.90
23156;DHT22;11746;50.876;4.246;2023-04-03T00:46:12;5.00;99.90
23156;DHT22;11746;50.876;4.246;2023-04-03T00:48:41;4.90;99.90
23156;DHT22;11746;50.876;4.246;2023-04-03T00:51:14;5.00;99.90
23156;DHT22;11746;50.876;4.246;2023-04-03T00:53:46;5.00;99.90
23156;DHT22;11746;50.876;4.246;2023-04-03T00:56:17;4.90;99.90
23156;DHT22;11746;50.876;4.246;2023-04-03T00:58:51;4.80;99.90
23156;DHT22;11746;50.876;4.246;2023-04-03T01:01:21;4.80;99.90
23156;DHT22;11746;50.876;4.246;2023-04-03T01:03:48;4.80;99.90
23156;DHT22;11746;50.876;4.246;2023-04-03T01:06:17;4.70;99.90
23156;DHT22;11746;50.876;4.246;2023-04-03T01:08:48;4.70;99.90
23156;DHT22;11746;50.876;4.246;2023-04-03T01:11:15;4.70;99.90
23156;DHT22;11746;50.876;4.246;2023-04-03T01:13:40;4.80;99.90
23156;DHT22;11746;50.876;4.246;2023-04-03T01:16:07;4.80;99.90
23156;DHT22;11746;50.876;4.246;2023-04-03T01:18:37;4.80;99.90
23156;DHT22;11746;50.876;4.246;2023-04-03T01:26:04;4.70;99.90
23156;DHT22;11746;50.876;4.246;2023-04-03T01:28:33;4.70;99.90
23156;DHT22;11746;50.876;4.246;2023-04-03T01:33:41;4.80;99.90
23156;DHT22;11746;50.876;4.246;2023-04-03T01:36:10;4.70;99.90
23156;DHT22;11746;50.876;4.246;2023-04-03T01:38:36;4.60;99.90
23156;DHT22;11746;50.876;4.246;2023-04-03T01:41:01;4.60;99.90
23156;DHT22;11746;50.876;4.246;2023-04-03T01:43:27;4.60;99.90
23156;DHT22;11746;50.876;4.246;2023-04-03T01:45:52;4.60;99.90
23156;DHT22;11746;50.876;4.246;2023-04-03T01:48:21;4.60;99.90
23156;DHT22;11746;50.876;4.246;2023-04-03T01:50:49;4.60;99.90
23156;DHT22;11746;50.876;4.246;2023-04-03T01:53:15;4.60;99.90
23156;DHT22;11746;50.876;4.246;2023-04-03T01:55:41;4.60;99.90
23156;DHT22;11746;50.876;4.246;2023-04-03T01:58:07;4.70;99.90
23156;DHT22;11746;50.876;4.246;2023-04-03T02:00:32;4.60;99.90
23156;DHT22;11746;50.876;4.246;2023-04-03T02:02:58;4.50;99.90
23156;DHT22;11746;50.876;4.246;2023-04-03T02:05:23;4.60;99.90
23156;DHT22;11746;50.876;4.246;2023-04-03T02:07:51;4.60;99.90
23156;DHT22;11746;50.876;4.246;2023-04-03T02:10:19;4.50;99.90
23156;DHT22;11746;50.876;4.246;2023-04-03T02:12:48;4.50;99.90
23156;DHT22;11746;50.876;4.246;2023-04-03T02:15:13;4.50;99.90
23156;DHT22;11746;50.876;4.246;2023-04-03T02:17:39;4.50;99.90
23156;DHT22;11746;50.876;4.246;2023-04-03T02:20:05;4.40;99.90
23156;DHT22;11746;50.876;4.246;2023-04-03T02:22:31;4.40;99.90
23156;DHT22;11746;50.876;4.246;2023-04-03T02:24:56;4.40;99.90
23156;DHT22;11746;50.876;4.246;2023-04-03T02:27:22;4.50;99.90
23156;DHT22;11746;50.876;4.246;2023-04-03T02:29:52;4.30;99.90
23156;DHT22;11746;50.876;4.246;2023-04-03T02:32:20;4.30;99.90
23156;DHT22;11746;50.876;4.246;2023-04-03T02:34:46;4.40;99.90
23156;DHT22;11746;50.876;4.246;2023-04-03T02:37:11;4.40;99.90
23156;DHT22;11746;50.876;4.246;2023-04-03T02:39:37;4.40;99.90
23156;DHT22;11746;50.876;4.246;2023-04-03T02:42:03;4.40;99.90
23156;DHT22;11746;50.876;4.246;2023-04-03T02:44:28;4.20;99.90
23156;DHT22;11746;50.876;4.246;2023-04-03T02:46:56;4.10;99.90
23156;DHT22;11746;50.876;4.246;2023-04-03T02:49:22;4.10;99.90
23156;DHT22;11746;50.876;4.246;2023-04-03T02:51:47;4.00;99.90
23156;DHT22;11746;50.876;4.246;2023-04-03T02:54:13;4.10;99.90
23156;DHT22;11746;50.876;4.246;2023-04-03T02:56:39;4.00;99.90
23156;DHT22;11746;50.876;4.246;2023-04-03T02:59:07;4.10;99.90
23156;DHT22;11746;50.876;4.246;2023-04-03T03:01:37;4.10;99.90
23156;DHT22;11746;50.876;4.246;2023-04-03T03:04:06;4.10;99.90
23156;DHT22;11746;50.876;4.246;2023-04-03T03:06:34;4.10;99.90
23156;DHT22;11746;50.876;4.246;2023-04-03T03:09:02;4.00;99.90
23156;DHT22;11746;50.876;4.246;2023-04-03T03:11:29;3.90;99.90
23156;DHT22;11746;50.876;4.246;2023-04-03T03:13:55;3.90;99.90
23156;DHT22;11746;50.876;4.246;2023-04-03T03:16:23;3.90;99.90
23156;DHT22;11746;50.876;4.246;2023-04-03T03:18:49;4.00;99.90
23156;DHT22;11746;50.876;4.246;2023-04-03T03:21:15;4.00;99.90
23156;DHT22;11746;50.876;4.246;2023-04-03T03:23:41;3.80;99.90
23156;DHT22;11746;50.876;4.246;2023-04-03T03:26:10;3.80;99.90
23156;DHT22;11746;50.876;4.246;2023-04-03T03:28:36;3.80;99.90
23156;DHT22;11746;50.876;4.246;2023-04-03T03:31:03;3.90;99.90
23156;DHT22;11746;50.876;4.246;2023-04-03T03:33:29;3.90;99.90
23156;DHT22;11746;50.876;4.246;2023-04-03T03:35:55;3.90;99.90
23156;DHT22;11746;50.876;4.246;2023-04-03T03:38:23;3.90;99.90
23156;DHT22;11746;50.876;4.246;2023-04-03T03:40:50;4.00;99.90
23156;DHT22;11746;50.876;4.246;2023-04-03T03:43:18;4.10;99.90
23156;DHT22;11746;50.876;4.246;2023-04-03T03:45:44;4.10;99.90
23156;DHT22;11746;50.876;4.246;2023-04-03T03:48:10;4.00;99.90
23156;DHT22;11746;50.876;4.246;2023-04-03T03:50:36;4.00;99.90
23156;DHT22;11746;50.876;4.246;2023-04-03T03:53:02;4.00;99.90
23156;DHT22;11746;50.876;4.246;2023-04-03T03:55:27;4.00;99.90
23156;DHT22;11746;50.876;4.246;2023-04-03T03:57:55;3.90;99.90
23156;DHT22;11746;50.876;4.246;2023-04-03T04:00:21;3.90;99.90
23156;DHT22;11746;50.876;4.246;2023-04-03T04:02:47;3.90;99.90
23156;DHT22;11746;50.876;4.246;2023-04-03T04:05:15;3.90;99.90
23156;DHT22;11746;50.876;4.246;2023-04-03T04:07:40;3.80;99.90
23156;DHT22;11746;50.876;4.246;2023-04-03T04:10:06;3.80;99.90
23156;DHT22;11746;50.876;4.246;2023-04-03T04:12:32;3.90;99.90
23156;DHT22;11746;50.876;4.246;2023-04-03T04:14:58;3.90;99.90
23156;DHT22;11746;50.876;4.246;2023-04-03T04:17:24;3.80;99.90
23156;DHT22;11746;50.876;4.246;2023-04-03T04:19:49;3.90;99.90
23156;DHT22;11746;50.876;4.246;2023-04-03T04:22:17;3.90;99.90
23156;DHT22;11746;50.876;4.246;2023-04-03T04:24:42;3.90;99.90
23156;DHT22;11746;50.876;4.246;2023-04-03T04:27:08;3.90;99.90
23156;DHT22;11746;50.876;4.246;2023-04-03T04:29:34;3.90;99.90
23156;DHT22;11746;50.876;4.246;2023-04-03T04:32:02;3.90;99.90
23156;DHT22;11746;50.876;4.246;2023-04-03T04:34:28;3.90;99.90
23156;DHT22;11746;50.876;4.246;2023-04-03T04:36:59;3.90;99.90
23156;DHT22;11746;50.876;4.246;2023-04-03T04:39:26;3.80;99.90
23156;DHT22;11746;50.876;4.246;2023-04-03T04:41:52;3.70;99.90
23156;DHT22;11746;50.876;4.246;2023-04-03T04:44:20;3.70;99.90
23156;DHT22;11746;50.876;4.246;2023-04-03T04:46:46;3.70;99.90
23156;DHT22;11746;50.876;4.246;2023-04-03T04:49:11;3.70;99.90
23156;DHT22;11746;50.876;4.246;2023-04-03T04:51:37;3.60;99.90
23156;DHT22;11746;50.876;4.246;2023-04-03T04:54:03;3.70;99.90
23156;DHT22;11746;50.876;4.246;2023-04-03T04:56:28;3.70;99.90
23156;DHT22;11746;50.876;4.246;2023-04-03T04:58:54;3.70;99.90
23156;DHT22;11746;50.876;4.246;2023-04-03T05:01:20;3.60;99.90
23156;DHT22;11746;50.876;4.246;2023-04-03T05:03:50;3.60;99.90
23156;DHT22;11746;50.876;4.246;2023-04-03T05:06:16;3.50;99.90
23156;DHT22;11746;50.876;4.246;2023-04-03T05:08:41;3.40;99.90
23156;DHT22;11746;50.876;4.246;2023-04-03T05:11:07;3.50;99.90
23156;DHT22;11746;50.876;4.246;2023-04-03T05:13:33;3.50;99.90
23156;DHT22;11746;50.876;4.246;2023-04-03T05:15:58;3.40;99.90
23156;DHT22;11746;50.876;4.246;2023-04-03T05:18:24;3.40;99.90
23156;DHT22;11746;50.876;4.246;2023-04-03T05:20:51;3.50;99.90
23156;DHT22;11746;50.876;4.246;2023-04-03T05:23:18;3.50;99.90
23156;DHT22;11746;50.876;4.246;2023-04-03T05:25:45;3.40;99.90
23156;DHT22;11746;50.876;4.246;2023-04-03T05:28:12;3.40;99.90
23156;DHT22;11746;50.876;4.246;2023-04-03T05:30:38;3.40;99.90
23156;DHT22;11746;50.876;4.246;2023-04-03T05:33:04;3.30;99.90
23156;DHT22;11746;50.876;4.246;2023-04-03T05:35:32;3.40;99.90
23156;DHT22;11746;50.876;4.246;2023-04-03T05:37:57;3.50;99.90
23156;DHT22;11746;50.876;4.246;2023-04-03T05:40:23;3.50;99.90
23156;DHT22;11746;50.876;4.246;2023-04-03T05:42:51;3.60;99.90
23156;DHT22;11746;50.876;4.246;2023-04-03T05:45:18;3.70;99.90
23156;DHT22;11746;50.876;4.246;2023-04-03T05:47:46;3.60;99.90
23156;DHT22;11746;50.876;4.246;2023-04-03T05:50:15;3.70;99.90
23156;DHT22;11746;50.876;4.246;2023-04-03T05:52:44;3.70;99.90
23156;DHT22;11746;50.876;4.246;2023-04-03T05:55:15;3.60;99.90
23156;DHT22;11746;50.876;4.246;2023-04-03T05:57:41;3.70;99.90
23156;DHT22;11746;50.876;4.246;2023-04-03T06:00:11;3.80;99.90
23156;DHT22;11746;50.876;4.246;2023-04-03T06:02:38;3.70;99.90
23156;DHT22;11746;50.876;4.246;2023-04-03T06:05:03;3.60;99.90
23156;DHT22;11746;50.876;4.246;2023-04-03T06:07:29;3.80;99.90
23156;DHT22;11746;50.876;4.246;2023-04-03T06:09:56;3.80;99.90
23156;DHT22;11746;50.876;4.246;2023-04-03T06:12:24;3.90;99.90
23156;DHT22;11746;50.876;4.246;2023-04-03T06:14:51;4.00;99.90
23156;DHT22;11746;50.876;4.246;2023-04-03T06:17:19;4.10;99.90
23156;DHT22;11746;50.876;4.246;2023-04-03T06:19:45;4.10;99.90
23156;DHT22;11746;50.876;4.246;2023-04-03T06:22:11;4.20;99.90
23156;DHT22;11746;50.876;4.246;2023-04-03T06:24:37;4.20;99.90
23156;DHT22;11746;50.876;4.246;2023-04-03T06:27:03;4.40;99.90
23156;DHT22;11746;50.876;4.246;2023-04-03T06:29:34;4.30;99.90
23156;DHT22;11746;50.876;4.246;2023-04-03T06:32:02;4.30;99.90
23156;DHT22;11746;50.876;4.246;2023-04-03T06:34:28;4.30;99.90
23156;DHT22;11746;50.876;4.246;2023-04-03T06:36:53;4.20;99.90
23156;DHT22;11746;50.876;4.246;2023-04-03T06:39:21;4.30;99.90
23156;DHT22;11746;50.876;4.246;2023-04-03T06:41:50;4.40;99.90
23156;DHT22;11746;50.876;4.246;2023-04-03T06:44:16;4.40;99.90
23156;DHT22;11746;50.876;4.246;2023-04-03T06:46:42;4.40;99.90
23156;DHT22;11746;50.876;4.246;2023-04-03T06:49:08;4.40;99.90
23156;DHT22;11746;50.876;4.246;2023-04-03T06:51:35;4.50;99.90
23156;DHT22;11746;50.876;4.246;2023-04-03T06:54:04;4.70;99.90
23156;DHT22;11746;50.876;4.246;2023-04-03T06:56:34;4.50;99.90
23156;DHT22;11746;50.876;4.246;2023-04-03T06:58:59;4.50;99.90
23156;DHT22;11746;50.876;4.246;2023-04-03T07:01:28;4.60;99.90
23156;DHT22;11746;50.876;4.246;2023-04-03T07:03:55;4.60;99.90
23156;DHT22;11746;50.876;4.246;2023-04-03T07:06:21;4.80;99.90
23156;DHT22;11746;50.876;4.246;2023-04-03T07:08:47;4.90;99.90
23156;DHT22;11746;50.876;4.246;2023-04-03T07:11:14;5.00;99.90
23156;DHT22;11746;50.876;4.246;2023-04-03T07:13:42;4.90;99.90
23156;DHT22;11746;50.876;4.246;2023-04-03T07:16:08;4.90;99.90
23156;DHT22;11746;50.876;4.246;2023-04-03T07:18:35;4.90;99.90
23156;DHT22;11746;50.876;4.246;2023-04-03T07:21:01;4.90;99.90
23156;DHT22;11746;50.876;4.246;2023-04-03T07:23:27;4.90;99.90
23156;DHT22;11746;50.876;4.246;2023-04-03T07:25:54;5.00;99.90
23156;DHT22;11746;50.876;4.246;2023-04-03T07:28:21;5.10;99.90
23156;DHT22;11746;50.876;4.246;2023-04-03T07:30:53;5.00;99.90
23156;DHT22;11746;50.876;4.246;2023-04-03T07:33:22;5.00;99.90
23156;DHT22;11746;50.876;4.246;2023-04-03T07:35:51;5.30;99.90
23156;DHT22;11746;50.876;4.246;2023-04-03T07:38:17;5.30;99.90
23156;DHT22;11746;50.876;4.246;2023-04-03T07:40:50;5.20;99.90
23156;DHT22;11746;50.876;4.246;2023-04-03T07:43:19;5.30;99.90
23156;DHT22;11746;50.876;4.246;2023-04-03T07:45:46;5.40;99.90
23156;DHT22;11746;50.876;4.246;2023-04-03T07:48:15;5.40;99.90
23156;DHT22;11746;50.876;4.246;2023-04-03T07:50:41;5.50;99.90
23156;DHT22;11746;50.876;4.246;2023-04-03T07:53:07;5.60;99.90
23156;DHT22;11746;50.876;4.246;2023-04-03T07:55:33;5.70;99.90
23156;DHT22;11746;50.876;4.246;2023-04-03T07:58:01;5.70;99.90
23156;DHT22;11746;50.876;4.246;2023-04-03T08:00:27;5.80;99.90
23156;DHT22;11746;50.876;4.246;2023-04-03T08:02:52;5.80;99.90
23156;DHT22;11746;50.876;4.246;2023-04-03T08:05:19;5.90;99.90
23156;DHT22;11746;50.876;4.246;2023-04-03T08:07:45;6.00;99.90
23156;DHT22;11746;50.876;4.246;2023-04-03T08:10:10;5.90;99.90
23156;DHT22;11746;50.876;4.246;2023-04-03T08:12:38;6.10;99.90
23156;DHT22;11746;50.876;4.246;2023-04-03T08:15:07;6.20;99.90
23156;DHT22;11746;50.876;4.246;2023-04-03T08:17:36;6.30;99.90
23156;DHT22;11746;50.876;4.246;2023-04-03T08:20:03;6.20;99.90
23156;DHT22;11746;50.876;4.246;2023-04-03T08:22:30;6.30;99.90
23156;DHT22;11746;50.876;4.246;2023-04-03T08:24:56;6.40;99.90
23156;DHT22;11746;50.876;4.246;2023-04-03T08:27:24;6.50;99.90
23156;DHT22;11746;50.876;4.246;2023-04-03T08:29:49;6.60;99.90
23156;DHT22;11746;50.876;4.246;2023-04-03T08:32:15;6.50;99.90
23156;DHT22;11746;50.876;4.246;2023-04-03T08:34:44;6.40;99.90
23156;DHT22;11746;50.876;4.246;2023-04-03T08:37:10;6.60;99.90
23156;DHT22;11746;50.876;4.246;2023-04-03T08:39:36;6.70;99.90
23156;DHT22;11746;50.876;4.246;2023-04-03T08:42:10;6.70;99.90
23156;DHT22;11746;50.876;4.246;2023-04-03T08:45:05;6.90;99.90
23156;DHT22;11746;50.876;4.246;2023-04-03T08:50:26;7.00;99.90
23156;DHT22;11746;50.876;4.246;2023-04-03T08:52:58;7.30;99.90
23156;DHT22;11746;50.876;4.246;2023-04-03T08:58:09;7.50;99.90
23156;DHT22;11746;50.876;4.246;2023-04-03T09:01:00;7.70;99.90
23156;DHT22;11746;50.876;4.246;2023-04-03T09:03:30;7.70;99.90
23156;DHT22;11746;50.876;4.246;2023-04-03T09:16:53;7.70;99.90
23156;DHT22;11746;50.876;4.246;2023-04-03T09:22:22;7.90;99.90
23156;DHT22;11746;50.876;4.246;2023-04-03T09:24:57;7.90;99.90
23156;DHT22;11746;50.876;4.246;2023-04-03T09:27:24;8.00;99.90
23156;DHT22;11746;50.876;4.246;2023-04-03T09:29:53;8.10;99.90
23156;DHT22;11746;50.876;4.246;2023-04-03T09:32:31;8.00;99.90
23156;DHT22;11746;50.876;4.246;2023-04-03T09:35:28;8.10;99.90
23156;DHT22;11746;50.876;4.246;2023-04-03T09:37:59;8.30;99.90
23156;DHT22;11746;50.876;4.246;2023-04-03T09:45:46;8.10;99.90
23156;DHT22;11746;50.876;4.246;2023-04-03T09:58:43;8.40;99.90
23156;DHT22;11746;50.876;4.246;2023-04-03T10:01:33;8.50;99.90
23156;DHT22;11746;50.876;4.246;2023-04-03T10:04:13;8.60;99.90
23156;DHT22;11746;50.876;4.246;2023-04-03T10:06:44;8.60;99.90
23156;DHT22;11746;50.876;4.246;2023-04-03T10:09:28;8.60;99.90
23156;DHT22;11746;50.876;4.246;2023-04-03T10:12:03;8.70;99.90
23156;DHT22;11746;50.876;4.246;2023-04-03T10:19:44;9.00;99.90
23156;DHT22;11746;50.876;4.246;2023-04-03T10:25:06;9.20;99.90
23156;DHT22;11746;50.876;4.246;2023-04-03T10:28:27;9.20;99.90
23156;DHT22;11746;50.876;4.246;2023-04-03T10:34:02;9.40;99.90
23156;DHT22;11746;50.876;4.246;2023-04-03T10:44:52;9.80;99.90
23156;DHT22;11746;50.876;4.246;2023-04-03T10:50:23;10.30;99.90
23156;DHT22;11746;50.876;4.246;2023-04-03T10:53:08;10.40;99.90
23156;DHT22;11746;50.876;4.246;2023-04-03T10:55:57;10.40;99.90
23156;DHT22;11746;50.876;4.246;2023-04-03T10:58:29;10.30;99.90
23156;DHT22;11746;50.876;4.246;2023-04-03T11:01:08;10.30;99.90
23156;DHT22;11746;50.876;4.246;2023-04-03T11:03:36;10.40;99.90
23156;DHT22;11746;50.876;4.246;2023-04-03T11:06:05;10.30;99.90
23156;DHT22;11746;50.876;4.246;2023-04-03T11:11:11;10.50;99.90
23156;DHT22;11746;50.876;4.246;2023-04-03T11:16:23;10.40;99.90
23156;DHT22;11746;50.876;4.246;2023-04-03T11:18:54;10.50;99.90
23156;DHT22;11746;50.876;4.246;2023-04-03T11:21:37;10.50;99.90
23156;DHT22;11746;50.876;4.246;2023-04-03T11:24:17;10.40;99.90
23156;DHT22;11746;50.876;4.246;2023-04-03T11:26:49;10.60;99.90
23156;DHT22;11746;50.876;4.246;2023-04-03T11:29:20;10.70;99.90
23156;DHT22;11746;50.876;4.246;2023-04-03T11:34:49;10.70;99.90
23156;DHT22;11746;50.876;4.246;2023-04-03T11:37:38;10.80;99.90
23156;DHT22;11746;50.876;4.246;2023-04-03T11:40:18;10.90;97.50
23156;DHT22;11746;50.876;4.246;2023-04-03T11:42:51;11.10;99.70
23156;DHT22;11746;50.876;4.246;2023-04-03T11:45:24;11.30;99.40
23156;DHT22;11746;50.876;4.246;2023-04-03T11:58:37;11.30;97.10
23156;DHT22;11746;50.876;4.246;2023-04-03T12:01:11;11.40;96.70
23156;DHT22;11746;50.876;4.246;2023-04-03T12:04:04;11.60;97.40
23156;DHT22;11746;50.876;4.246;2023-04-03T12:09:01;11.70;94.30
23156;DHT22;11746;50.876;4.246;2023-04-03T12:11:30;11.60;92.80
23156;DHT22;11746;50.876;4.246;2023-04-03T12:26:38;11.80;95.10
23156;DHT22;11746;50.876;4.246;2023-04-03T12:29:21;12.00;94.40
23156;DHT22;11746;50.876;4.246;2023-04-03T12:40:23;12.20;92.70
23156;DHT22;11746;50.876;4.246;2023-04-03T12:43:05;12.40;91.30
23156;DHT22;11746;50.876;4.246;2023-04-03T12:48:33;12.30;89.30
23156;DHT22;11746;50.876;4.246;2023-04-03T12:50:59;12.20;87.20
23156;DHT22;11746;50.876;4.246;2023-04-03T12:53:28;12.30;90.60
23156;DHT22;11746;50.876;4.246;2023-04-03T12:56:28;12.30;90.00
23156;DHT22;11746;50.876;4.246;2023-04-03T12:59:20;12.50;93.10
23156;DHT22;11746;50.876;4.246;2023-04-03T13:01:59;12.50;91.80
23156;DHT22;11746;50.876;4.246;2023-04-03T13:04:31;12.70;84.80
23156;DHT22;11746;50.876;4.246;2023-04-03T13:06:57;12.90;82.60
23156;DHT22;11746;50.876;4.246;2023-04-03T13:09:29;13.00;90.30
23156;DHT22;11746;50.876;4.246;2023-04-03T13:12:01;13.10;83.60
23156;DHT22;11746;50.876;4.246;2023-04-03T13:14:30;13.30;82.20
23156;DHT22;11746;50.876;4.246;2023-04-03T13:17:04;13.20;77.50
23156;DHT22;11746;50.876;4.246;2023-04-03T13:19:32;13.30;75.70
23156;DHT22;11746;50.876;4.246;2023-04-03T13:22:23;13.30;74.90
23156;DHT22;11746;50.876;4.246;2023-04-03T13:24:53;13.70;76.10
23156;DHT22;11746;50.876;4.246;2023-04-03T13:27:22;13.90;75.20
23156;DHT22;11746;50.876;4.246;2023-04-03T13:29:57;13.80;72.00
23156;DHT22;11746;50.876;4.246;2023-04-03T13:32:25;14.00;75.40
23156;DHT22;11746;50.876;4.246;2023-04-03T13:34:52;14.20;73.60
23156;DHT22;11746;50.876;4.246;2023-04-03T13:37:24;14.40;70.80
23156;DHT22;11746;50.876;4.246;2023-04-03T13:42:33;14.90;69.20
23156;DHT22;11746;50.876;4.246;2023-04-03T13:45:22;14.80;65.20
23156;DHT22;11746;50.876;4.246;2023-04-03T13:48:19;14.90;67.50
23156;DHT22;11746;50.876;4.246;2023-04-03T13:50:54;14.40;69.50
23156;DHT22;11746;50.876;4.246;2023-04-03T13:53:24;14.60;65.50
23156;DHT22;11746;50.876;4.246;2023-04-03T13:58:33;14.60;66.60
23156;DHT22;11746;50.876;4.246;2023-04-03T14:01:14;14.80;63.70
23156;DHT22;11746;50.876;4.246;2023-04-03T14:04:09;15.30;63.20
23156;DHT22;11746;50.876;4.246;2023-04-03T14:06:35;15.80;60.80
23156;DHT22;11746;50.876;4.246;2023-04-03T14:09:02;16.10;63.70
23156;DHT22;11746;50.876;4.246;2023-04-03T14:11:30;16.50;61.50
23156;DHT22;11746;50.876;4.246;2023-04-03T14:14:02;16.00;60.50
23156;DHT22;11746;50.876;4.246;2023-04-03T14:16:36;15.70;60.20
23156;DHT22;11746;50.876;4.246;2023-04-03T14:19:02;15.50;62.00
23156;DHT22;11746;50.876;4.246;2023-04-03T14:21:28;16.00;63.60
23156;DHT22;11746;50.876;4.246;2023-04-03T14:23:54;16.40;62.30
23156;DHT22;11746;50.876;4.246;2023-04-03T14:26:22;16.30;62.20
23156;DHT22;11746;50.876;4.246;2023-04-03T14:28:54;16.20;65.40
23156;DHT22;11746;50.876;4.246;2023-04-03T14:31:24;16.70;63.20
23156;DHT22;11746;50.876;4.246;2023-04-03T14:33:53;17.30;60.10
23156;DHT22;11746;50.876;4.246;2023-04-03T14:36:23;16.90;55.50
23156;DHT22;11746;50.876;4.246;2023-04-03T14:38:53;16.70;54.30
23156;DHT22;11746;50.876;4.246;2023-04-03T14:41:21;17.40;58.30
23156;DHT22;11746;50.876;4.246;2023-04-03T14:43:48;18.00;54.30
23156;DHT22;11746;50.876;4.246;2023-04-03T14:46:18;17.90;53.40
23156;DHT22;11746;50.876;4.246;2023-04-03T14:48:45;18.00;52.30
23156;DHT22;11746;50.876;4.246;2023-04-03T14:51:12;17.80;51.60
23156;DHT22;11746;50.876;4.246;2023-04-03T14:53:39;18.40;51.90
23156;DHT22;11746;50.876;4.246;2023-04-03T14:56:19;18.40;52.90
23156;DHT22;11746;50.876;4.246;2023-04-03T14:58:55;18.80;51.00
23156;DHT22;11746;50.876;4.246;2023-04-03T15:01:21;19.10;49.40
23156;DHT22;11746;50.876;4.246;2023-04-03T15:03:49;19.20;48.60
23156;DHT22;11746;50.876;4.246;2023-04-03T15:06:15;19.90;51.50
23156;DHT22;11746;50.876;4.246;2023-04-03T15:08:45;20.50;48.40
23156;DHT22;11746;50.876;4.246;2023-04-03T15:11:13;20.30;52.90
23156;DHT22;11746;50.876;4.246;2023-04-03T15:13:42;19.70;49.80
23156;DHT22;11746;50.876;4.246;2023-04-03T15:16:15;19.40;50.00
23156;DHT22;11746;50.876;4.246;2023-04-03T15:18:44;19.80;55.00
23156;DHT22;11746;50.876;4.246;2023-04-03T15:21:13;20.20;52.40
23156;DHT22;11746;50.876;4.246;2023-04-03T15:23:42;19.70;51.90
23156;DHT22;11746;50.876;4.246;2023-04-03T15:26:08;19.30;53.10
23156;DHT22;11746;50.876;4.246;2023-04-03T15:28:39;19.40;51.50
23156;DHT22;11746;50.876;4.246;2023-04-03T15:31:11;19.40;53.10
23156;DHT22;11746;50.876;4.246;2023-04-03T15:33:39;19.10;50.30
23156;DHT22;11746;50.876;4.246;2023-04-03T15:36:05;19.20;50.60
23156;DHT22;11746;50.876;4.246;2023-04-03T15:38:31;19.30;53.10
23156;DHT22;11746;50.876;4.246;2023-04-03T15:40:57;19.40;50.30
23156;DHT22;11746;50.876;4.246;2023-04-03T15:43:23;19.70;51.40
23156;DHT22;11746;50.876;4.246;2023-04-03T15:45:49;20.00;49.40
23156;DHT22;11746;50.876;4.246;2023-04-03T15:48:17;19.80;49.70
23156;DHT22;11746;50.876;4.246;2023-04-03T15:50:45;19.40;48.60
23156;DHT22;11746;50.876;4.246;2023-04-03T15:53:13;19.40;49.50
23156;DHT22;11746;50.876;4.246;2023-04-03T15:55:39;20.20;50.30
23156;DHT22;11746;50.876;4.246;2023-04-03T15:58:05;20.20;48.10
23156;DHT22;11746;50.876;4.246;2023-04-03T16:00:33;20.30;48.00
23156;DHT22;11746;50.876;4.246;2023-04-03T16:03:11;20.00;47.00
23156;DHT22;11746;50.876;4.246;2023-04-03T16:05:38;20.10;47.60
23156;DHT22;11746;50.876;4.246;2023-04-03T16:08:05;19.80;47.80
23156;DHT22;11746;50.876;4.246;2023-04-03T16:10:35;19.80;47.20
23156;DHT22;11746;50.876;4.246;2023-04-03T16:13:04;19.70;46.60
23156;DHT22;11746;50.876;4.246;2023-04-03T16:15:33;19.80;47.30
23156;DHT22;11746;50.876;4.246;2023-04-03T16:18:05;20.00;48.10
23156;DHT22;11746;50.876;4.246;2023-04-03T16:20:31;20.20;47.10
23156;DHT22;11746;50.876;4.246;2023-04-03T16:23:00;19.90;46.30
23156;DHT22;11746;50.876;4.246;2023-04-03T16:25:28;19.70;45.50
23156;DHT22;11746;50.876;4.246;2023-04-03T16:27:56;19.90;46.70
23156;DHT22;11746;50.876;4.246;2023-04-03T16:30:22;20.20;45.40
23156;DHT22;11746;50.876;4.246;2023-04-03T16:32:47;20.50;45.50
23156;DHT22;11746;50.876;4.246;2023-04-03T16:35:13;20.30;46.10
23156;DHT22;11746;50.876;4.246;2023-04-03T16:37:39;19.80;45.70
23156;DHT22;11746;50.876;4.246;2023-04-03T16:40:06;19.60;45.60
23156;DHT22;11746;50.876;4.246;2023-04-03T16:42:32;19.50;45.30
23156;DHT22;11746;50.876;4.246;2023-04-03T16:44:58;19.40;45.70
23156;DHT22;11746;50.876;4.246;2023-04-03T16:47:26;19.80;45.70
23156;DHT22;11746;50.876;4.246;2023-04-03T16:49:54;19.80;44.80
23156;DHT22;11746;50.876;4.246;2023-04-03T16:52:20;20.00;45.70
23156;DHT22;11746;50.876;4.246;2023-04-03T16:54:48;19.90;45.30
23156;DHT22;11746;50.876;4.246;2023-04-03T16:57:14;18.90;44.70
23156;DHT22;11746;50.876;4.246;2023-04-03T16:59:39;18.80;46.10
23156;DHT22;11746;50.876;4.246;2023-04-03T17:02:07;18.90;46.70
23156;DHT22;11746;50.876;4.246;2023-04-03T17:04:33;18.80;46.60
23156;DHT22;11746;50.876;4.246;2023-04-03T17:07:03;18.80;46.10
23156;DHT22;11746;50.876;4.246;2023-04-03T17:09:32;18.00;46.20
23156;DHT22;11746;50.876;4.246;2023-04-03T17:11:58;17.80;46.90
23156;DHT22;11746;50.876;4.246;2023-04-03T17:14:26;18.00;47.60
23156;DHT22;11746;50.876;4.246;2023-04-03T17:16:52;17.70;48.00
23156;DHT22;11746;50.876;4.246;2023-04-03T17:19:18;17.70;48.00
23156;DHT22;11746;50.876;4.246;2023-04-03T17:21:44;18.00;48.40
23156;DHT22;11746;50.876;4.246;2023-04-03T17:24:14;17.90;47.50
23156;DHT22;11746;50.876;4.246;2023-04-03T17:26:41;18.00;48.50
23156;DHT22;11746;50.876;4.246;2023-04-03T17:29:06;17.50;47.70
23156;DHT22;11746;50.876;4.246;2023-04-03T17:31:38;17.10;47.70
23156;DHT22;11746;50.876;4.246;2023-04-03T17:34:04;16.20;48.10
23156;DHT22;11746;50.876;4.246;2023-04-03T17:36:30;15.70;49.20
23156;DHT22;11746;50.876;4.246;2023-04-03T17:38:56;15.30;49.70
23156;DHT22;11746;50.876;4.246;2023-04-03T17:41:25;14.70;51.20
23156;DHT22;11746;50.876;4.246;2023-04-03T17:43:51;14.00;52.30
23156;DHT22;11746;50.876;4.246;2023-04-03T17:46:21;13.40;52.80
23156;DHT22;11746;50.876;4.246;2023-04-03T17:48:47;12.70;53.40